Kyzyl, Russia
Current Conditions -  °F | °C
As of 1:00 AM on Friday 28 Nov 2014 (Local Time) from UNAA Reporting Station
Broken Clouds Broken Clouds  
Wind Chill:   Ceiling: 10000
Heat Index: 19°   Visibility: 6mi
Dew Point:   Wind: 16mph
Humidity: 46%   Direction: 250°WSW
Pressure: 29.77"   Gusts: NA
Location:  51.71°N, 94.38°E
Report Text: UNAA 271800Z 25007MPS 9999 SCT033CB BKN100 M07/M17 Q1008 NOSIGRMK QFE734 20090060
Loading
Personal Weather Stations






























Interactive Weather Map New forecast layout! Learn more

10-Day Weather Forecast

Advertisements
Track Severe Weather on mobile